sensor_id;sensor_type;location;lat;lon;timestamp;temperature;humidity
72126;SHT31;59999;51.676;22.650;2023-04-25T00:00:04;9.86;75.07
72126;SHT31;59999;51.676;22.650;2023-04-25T00:02:52;9.81;75.20
72126;SHT31;59999;51.676;22.650;2023-04-25T00:05:18;9.78;75.46
72126;SHT31;59999;51.676;22.650;2023-04-25T00:07:45;9.79;75.53
72126;SHT31;59999;51.676;22.650;2023-04-25T00:10:11;9.79;75.50
72126;SHT31;59999;51.676;22.650;2023-04-25T00:12:37;9.79;75.49
72126;SHT31;59999;51.676;22.650;2023-04-25T00:15:04;9.82;75.36
72126;SHT31;59999;51.676;22.650;2023-04-25T00:17:31;9.88;75.99
72126;SHT31;59999;51.676;22.650;2023-04-25T00:19:56;9.92;75.50
72126;SHT31;59999;51.676;22.650;2023-04-25T00:22:24;9.92;75.74
72126;SHT31;59999;51.676;22.650;2023-04-25T00:24:50;9.88;75.72
72126;SHT31;59999;51.676;22.650;2023-04-25T00:27:16;9.82;75.79
72126;SHT31;59999;51.676;22.650;2023-04-25T00:29:42;9.78;75.95
72126;SHT31;59999;51.676;22.650;2023-04-25T00:32:08;9.78;76.35
72126;SHT31;59999;51.676;22.650;2023-04-25T00:34:34;9.78;76.22
72126;SHT31;59999;51.676;22.650;2023-04-25T00:37:00;9.81;76.05
72126;SHT31;59999;51.676;22.650;2023-04-25T00:39:27;9.79;76.11
72126;SHT31;59999;51.676;22.650;2023-04-25T00:41:54;9.82;76.13
72126;SHT31;59999;51.676;22.650;2023-04-25T00:44:20;9.79;76.09
72126;SHT31;59999;51.676;22.650;2023-04-25T00:46:47;9.79;76.30
72126;SHT31;59999;51.676;22.650;2023-04-25T00:49:15;9.67;76.45
72126;SHT31;59999;51.676;22.650;2023-04-25T00:51:43;9.55;76.79
72126;SHT31;59999;51.676;22.650;2023-04-25T00:54:14;9.47;77.13
72126;SHT31;59999;51.676;22.650;2023-04-25T00:56:40;9.40;77.14
72126;SHT31;59999;51.676;22.650;2023-04-25T00:59:07;9.35;77.43
72126;SHT31;59999;51.676;22.650;2023-04-25T01:01:35;9.28;77.34
72126;SHT31;59999;51.676;22.650;2023-04-25T01:04:01;9.23;77.50
72126;SHT31;59999;51.676;22.650;2023-04-25T01:06:27;9.16;78.16
72126;SHT31;59999;51.676;22.650;2023-04-25T01:08:54;9.11;78.41
72126;SHT31;59999;51.676;22.650;2023-04-25T01:11:20;9.13;78.60
72126;SHT31;59999;51.676;22.650;2023-04-25T01:13:46;9.14;78.89
72126;SHT31;59999;51.676;22.650;2023-04-25T01:16:12;9.17;79.07
72126;SHT31;59999;51.676;22.650;2023-04-25T01:18:39;9.17;79.35
72126;SHT31;59999;51.676;22.650;2023-04-25T01:21:10;9.19;79.58
72126;SHT31;59999;51.676;22.650;2023-04-25T01:23:38;9.19;79.50
72126;SHT31;59999;51.676;22.650;2023-04-25T01:26:06;9.23;79.72
72126;SHT31;59999;51.676;22.650;2023-04-25T01:28:34;9.28;79.64
72126;SHT31;59999;51.676;22.650;2023-04-25T01:31:01;9.28;79.50
72126;SHT31;59999;51.676;22.650;2023-04-25T01:33:27;9.32;79.40
72126;SHT31;59999;51.676;22.650;2023-04-25T01:35:53;9.30;79.65
72126;SHT31;59999;51.676;22.650;2023-04-25T01:38:20;9.26;79.96
72126;SHT31;59999;51.676;22.650;2023-04-25T01:40:46;9.26;80.16
72126;SHT31;59999;51.676;22.650;2023-04-25T01:43:15;9.24;80.41
72126;SHT31;59999;51.676;22.650;2023-04-25T01:45:41;9.26;80.34
72126;SHT31;59999;51.676;22.650;2023-04-25T01:48:08;9.27;80.50
72126;SHT31;59999;51.676;22.650;2023-04-25T01:50:35;9.26;80.65
72126;SHT31;59999;51.676;22.650;2023-04-25T01:53:01;9.28;80.61
72126;SHT31;59999;51.676;22.650;2023-04-25T01:55:28;9.37;80.49
72126;SHT31;59999;51.676;22.650;2023-04-25T01:57:54;9.38;80.35
72126;SHT31;59999;51.676;22.650;2023-04-25T02:00:20;9.40;80.18
72126;SHT31;59999;51.676;22.650;2023-04-25T02:02:46;9.42;80.26
72126;SHT31;59999;51.676;22.650;2023-04-25T02:05:12;9.44;80.16
72126;SHT31;59999;51.676;22.650;2023-04-25T02:07:38;9.45;80.04
72126;SHT31;59999;51.676;22.650;2023-04-25T02:10:04;9.50;79.93
72126;SHT31;59999;51.676;22.650;2023-04-25T02:12:31;9.48;79.88
72126;SHT31;59999;51.676;22.650;2023-04-25T02:14:57;9.51;79.87
72126;SHT31;59999;51.676;22.650;2023-04-25T02:17:23;9.55;79.83
72126;SHT31;59999;51.676;22.650;2023-04-25T02:19:49;9.55;79.84
72126;SHT31;59999;51.676;22.650;2023-04-25T02:22:15;9.59;79.82
72126;SHT31;59999;51.676;22.650;2023-04-25T02:24:41;9.58;79.59
72126;SHT31;59999;51.676;22.650;2023-04-25T02:27:07;9.59;79.49
72126;SHT31;59999;51.676;22.650;2023-04-25T02:29:33;9.54;79.77
72126;SHT31;59999;51.676;22.650;2023-04-25T02:31:59;9.50;79.96
72126;SHT31;59999;51.676;22.650;2023-04-25T02:34:25;9.47;80.36
72126;SHT31;59999;51.676;22.650;2023-04-25T02:36:51;9.38;80.94
72126;SHT31;59999;51.676;22.650;2023-04-25T02:39:17;9.32;81.06
72126;SHT31;59999;51.676;22.650;2023-04-25T02:41:43;9.31;81.70
72126;SHT31;59999;51.676;22.650;2023-04-25T02:44:09;9.32;81.88
72126;SHT31;59999;51.676;22.650;2023-04-25T02:46:35;9.35;81.77
72126;SHT31;59999;51.676;22.650;2023-04-25T02:49:01;9.38;81.70
72126;SHT31;59999;51.676;22.650;2023-04-25T02:51:28;9.35;81.84
72126;SHT31;59999;51.676;22.650;2023-04-25T02:53:54;9.38;81.78
72126;SHT31;59999;51.676;22.650;2023-04-25T02:56:20;9.35;81.77
72126;SHT31;59999;51.676;22.650;2023-04-25T02:58:46;9.37;81.67
72126;SHT31;59999;51.676;22.650;2023-04-25T03:01:12;9.37;81.60
72126;SHT31;59999;51.676;22.650;2023-04-25T03:03:38;9.37;81.56
72126;SHT31;59999;51.676;22.650;2023-04-25T03:06:03;9.35;81.56
72126;SHT31;59999;51.676;22.650;2023-04-25T03:08:30;9.34;81.62
72126;SHT31;59999;51.676;22.650;2023-04-25T03:10:58;9.31;81.66
72126;SHT31;59999;51.676;22.650;2023-04-25T03:13:24;9.27;81.93
72126;SHT31;59999;51.676;22.650;2023-04-25T03:15:50;9.26;81.96
72126;SHT31;59999;51.676;22.650;2023-04-25T03:18:16;9.26;82.09
72126;SHT31;59999;51.676;22.650;2023-04-25T03:20:42;9.23;81.97
72126;SHT31;59999;51.676;22.650;2023-04-25T03:23:10;9.20;82.00
72126;SHT31;59999;51.676;22.650;2023-04-25T03:25:36;9.23;82.04
72126;SHT31;59999;51.676;22.650;2023-04-25T03:28:02;9.21;82.09
72126;SHT31;59999;51.676;22.650;2023-04-25T03:30:27;9.23;82.04
72126;SHT31;59999;51.676;22.650;2023-04-25T03:32:53;9.24;81.93
72126;SHT31;59999;51.676;22.650;2023-04-25T03:35:19;9.21;81.95
72126;SHT31;59999;51.676;22.650;2023-04-25T03:37:46;9.17;82.05
72126;SHT31;59999;51.676;22.650;2023-04-25T03:40:12;9.10;82.24
72126;SHT31;59999;51.676;22.650;2023-04-25T03:42:38;9.09;82.41
72126;SHT31;59999;51.676;22.650;2023-04-25T03:45:04;9.11;82.25
72126;SHT31;59999;51.676;22.650;2023-04-25T03:47:30;9.07;81.97
72126;SHT31;59999;51.676;22.650;2023-04-25T03:49:56;8.96;81.38
72126;SHT31;59999;51.676;22.650;2023-04-25T03:52:22;8.87;81.76
72126;SHT31;59999;51.676;22.650;2023-04-25T03:54:48;8.71;82.04
72126;SHT31;59999;51.676;22.650;2023-04-25T03:57:14;8.61;82.44
72126;SHT31;59999;51.676;22.650;2023-04-25T03:59:40;8.54;83.28
72126;SHT31;59999;51.676;22.650;2023-04-25T04:02:06;8.51;83.71
72126;SHT31;59999;51.676;22.650;2023-04-25T04:04:32;8.52;83.63
72126;SHT31;59999;51.676;22.650;2023-04-25T04:06:58;8.52;83.89
72126;SHT31;59999;51.676;22.650;2023-04-25T04:09:24;8.51;83.88
72126;SHT31;59999;51.676;22.650;2023-04-25T04:11:50;8.55;84.15
72126;SHT31;59999;51.676;22.650;2023-04-25T04:14:16;8.59;84.45
72126;SHT31;59999;51.676;22.650;2023-04-25T04:16:42;8.69;84.43
72126;SHT31;59999;51.676;22.650;2023-04-25T04:19:08;8.77;84.29
72126;SHT31;59999;51.676;22.650;2023-04-25T04:21:35;8.87;84.17
72126;SHT31;59999;51.676;22.650;2023-04-25T04:24:00;8.94;83.94
72126;SHT31;59999;51.676;22.650;2023-04-25T04:26:26;8.99;83.88
72126;SHT31;59999;51.676;22.650;2023-04-25T04:28:53;9.09;83.81
72126;SHT31;59999;51.676;22.650;2023-04-25T04:31:21;9.14;83.51
72126;SHT31;59999;51.676;22.650;2023-04-25T04:33:47;9.24;83.29
72126;SHT31;59999;51.676;22.650;2023-04-25T04:36:13;9.37;82.88
72126;SHT31;59999;51.676;22.650;2023-04-25T04:38:39;9.44;82.70
72126;SHT31;59999;51.676;22.650;2023-04-25T04:41:08;9.50;83.41
72126;SHT31;59999;51.676;22.650;2023-04-25T04:43:34;9.55;83.31
72126;SHT31;59999;51.676;22.650;2023-04-25T04:46:00;9.68;83.48
72126;SHT31;59999;51.676;22.650;2023-04-25T04:48:26;9.83;83.15
72126;SHT31;59999;51.676;22.650;2023-04-25T04:50:52;10.06;82.82
72126;SHT31;59999;51.676;22.650;2023-04-25T04:53:18;10.23;82.13
72126;SHT31;59999;51.676;22.650;2023-04-25T04:55:44;10.39;81.97
72126;SHT31;59999;51.676;22.650;2023-04-25T04:58:11;10.57;80.95
72126;SHT31;59999;51.676;22.650;2023-04-25T05:00:37;10.74;80.56
72126;SHT31;59999;51.676;22.650;2023-04-25T05:03:03;10.89;80.04
72126;SHT31;59999;51.676;22.650;2023-04-25T05:05:31;11.06;79.42
72126;SHT31;59999;51.676;22.650;2023-04-25T05:07:57;11.35;78.66
72126;SHT31;59999;51.676;22.650;2023-04-25T05:10:23;11.57;77.63
72126;SHT31;59999;51.676;22.650;2023-04-25T05:12:49;11.85;77.34
72126;SHT31;59999;51.676;22.650;2023-04-25T05:15:16;12.05;76.92
72126;SHT31;59999;51.676;22.650;2023-04-25T05:17:42;12.25;76.97
72126;SHT31;59999;51.676;22.650;2023-04-25T05:20:08;12.36;76.13
72126;SHT31;59999;51.676;22.650;2023-04-25T05:22:35;12.49;76.16
72126;SHT31;59999;51.676;22.650;2023-04-25T05:25:01;12.57;76.12
72126;SHT31;59999;51.676;22.650;2023-04-25T05:27:27;12.70;75.64
72126;SHT31;59999;51.676;22.650;2023-04-25T05:29:53;12.80;73.70
72126;SHT31;59999;51.676;22.650;2023-04-25T05:32:19;12.96;73.82
72126;SHT31;59999;51.676;22.650;2023-04-25T05:34:45;13.14;72.62
72126;SHT31;59999;51.676;22.650;2023-04-25T05:37:11;13.18;72.14
72126;SHT31;59999;51.676;22.650;2023-04-25T05:39:37;13.22;71.58
72126;SHT31;59999;51.676;22.650;2023-04-25T05:42:03;13.20;71.11
72126;SHT31;59999;51.676;22.650;2023-04-25T05:44:30;13.21;71.46
72126;SHT31;59999;51.676;22.650;2023-04-25T05:46:56;13.12;71.18
72126;SHT31;59999;51.676;22.650;2023-04-25T05:49:22;13.10;72.01
72126;SHT31;59999;51.676;22.650;2023-04-25T05:51:48;13.10;72.54
72126;SHT31;59999;51.676;22.650;2023-04-25T05:54:14;13.10;72.64
72126;SHT31;59999;51.676;22.650;2023-04-25T05:56:40;13.11;72.37
72126;SHT31;59999;51.676;22.650;2023-04-25T05:59:06;13.11;72.52
72126;SHT31;59999;51.676;22.650;2023-04-25T06:01:32;13.12;72.84
72126;SHT31;59999;51.676;22.650;2023-04-25T06:03:58;13.15;71.71
72126;SHT31;59999;51.676;22.650;2023-04-25T06:06:24;13.17;72.26
72126;SHT31;59999;51.676;22.650;2023-04-25T06:08:50;13.15;72.64
72126;SHT31;59999;51.676;22.650;2023-04-25T06:11:16;13.14;72.89
72126;SHT31;59999;51.676;22.650;2023-04-25T06:13:42;13.12;72.65
72126;SHT31;59999;51.676;22.650;2023-04-25T06:16:07;13.07;73.39
72126;SHT31;59999;51.676;22.650;2023-04-25T06:18:34;13.11;73.14
72126;SHT31;59999;51.676;22.650;2023-04-25T06:20:59;12.99;73.17
72126;SHT31;59999;51.676;22.650;2023-04-25T06:23:26;12.99;73.51
72126;SHT31;59999;51.676;22.650;2023-04-25T06:25:52;12.94;74.04
72126;SHT31;59999;51.676;22.650;2023-04-25T06:28:18;12.99;74.29
72126;SHT31;59999;51.676;22.650;2023-04-25T06:30:44;13.00;74.14
72126;SHT31;59999;51.676;22.650;2023-04-25T06:33:11;13.03;74.32
72126;SHT31;59999;51.676;22.650;2023-04-25T06:35:36;12.99;74.35
72126;SHT31;59999;51.676;22.650;2023-04-25T06:38:02;13.00;74.61
72126;SHT31;59999;51.676;22.650;2023-04-25T06:40:28;12.91;74.04
72126;SHT31;59999;51.676;22.650;2023-04-25T06:42:54;12.80;74.63
72126;SHT31;59999;51.676;22.650;2023-04-25T06:45:20;12.76;74.97
72126;SHT31;59999;51.676;22.650;2023-04-25T06:47:46;12.76;75.37
72126;SHT31;59999;51.676;22.650;2023-04-25T06:50:12;12.67;75.50
72126;SHT31;59999;51.676;22.650;2023-04-25T06:52:38;12.59;76.08
72126;SHT31;59999;51.676;22.650;2023-04-25T06:55:04;12.52;76.40
72126;SHT31;59999;51.676;22.650;2023-04-25T06:57:31;12.46;76.98
72126;SHT31;59999;51.676;22.650;2023-04-25T06:59:57;12.43;76.67
72126;SHT31;59999;51.676;22.650;2023-04-25T07:02:23;12.38;77.08
72126;SHT31;59999;51.676;22.650;2023-04-25T07:04:49;12.33;77.34
72126;SHT31;59999;51.676;22.650;2023-04-25T07:07:15;12.31;77.70
72126;SHT31;59999;51.676;22.650;2023-04-25T07:09:41;12.25;78.44
72126;SHT31;59999;51.676;22.650;2023-04-25T07:12:07;12.21;78.54
72126;SHT31;59999;51.676;22.650;2023-04-25T07:14:32;12.20;79.00
72126;SHT31;59999;51.676;22.650;2023-04-25T07:16:58;12.17;79.25
72126;SHT31;59999;51.676;22.650;2023-04-25T07:19:24;12.11;79.66
72126;SHT31;59999;51.676;22.650;2023-04-25T07:21:52;12.05;80.08
72126;SHT31;59999;51.676;22.650;2023-04-25T07:24:18;12.01;80.24
72126;SHT31;59999;51.676;22.650;2023-04-25T07:26:44;12.02;79.87
72126;SHT31;59999;51.676;22.650;2023-04-25T07:29:11;12.02;79.98
72126;SHT31;59999;51.676;22.650;2023-04-25T07:31:37;11.99;79.73
72126;SHT31;59999;51.676;22.650;2023-04-25T07:34:03;12.05;79.81
72126;SHT31;59999;51.676;22.650;2023-04-25T07:36:29;12.05;79.87
72126;SHT31;59999;51.676;22.650;2023-04-25T07:38:56;12.15;80.06
72126;SHT31;59999;51.676;22.650;2023-04-25T07:41:22;12.24;80.20
72126;SHT31;59999;51.676;22.650;2023-04-25T07:43:48;12.31;79.43
72126;SHT31;59999;51.676;22.650;2023-04-25T07:46:14;12.39;78.78
72126;SHT31;59999;51.676;22.650;2023-04-25T07:48:40;12.49;78.53
72126;SHT31;59999;51.676;22.650;2023-04-25T07:51:06;12.55;78.34
72126;SHT31;59999;51.676;22.650;2023-04-25T07:53:32;12.66;78.23
72126;SHT31;59999;51.676;22.650;2023-04-25T07:56:00;12.75;77.95
72126;SHT31;59999;51.676;22.650;2023-04-25T07:58:26;12.89;77.32
72126;SHT31;59999;51.676;22.650;2023-04-25T08:00:52;13.04;76.71
72126;SHT31;59999;51.676;22.650;2023-04-25T08:03:18;13.14;76.20
72126;SHT31;59999;51.676;22.650;2023-04-25T08:05:44;13.20;75.85
72126;SHT31;59999;51.676;22.650;2023-04-25T08:08:11;13.32;75.92
72126;SHT31;59999;51.676;22.650;2023-04-25T08:10:37;13.42;75.24
72126;SHT31;59999;51.676;22.650;2023-04-25T08:13:02;13.45;74.97
72126;SHT31;59999;51.676;22.650;2023-04-25T08:15:28;13.45;74.76
72126;SHT31;59999;51.676;22.650;2023-04-25T08:17:54;13.45;75.15
72126;SHT31;59999;51.676;22.650;2023-04-25T08:20:20;13.38;74.94
72126;SHT31;59999;51.676;22.650;2023-04-25T08:22:46;13.29;74.75
72126;SHT31;59999;51.676;22.650;2023-04-25T08:25:14;13.29;75.50
72126;SHT31;59999;51.676;22.650;2023-04-25T08:27:40;13.28;75.31
72126;SHT31;59999;51.676;22.650;2023-04-25T08:30:07;13.28;75.45
72126;SHT31;59999;51.676;22.650;2023-04-25T08:32:34;13.21;75.36
72126;SHT31;59999;51.676;22.650;2023-04-25T08:35:00;13.27;75.78
72126;SHT31;59999;51.676;22.650;2023-04-25T08:37:26;13.34;76.28
72126;SHT31;59999;51.676;22.650;2023-04-25T08:39:52;13.37;75.47
72126;SHT31;59999;51.676;22.650;2023-04-25T08:42:19;13.35;75.47
72126;SHT31;59999;51.676;22.650;2023-04-25T08:44:48;13.41;76.16
72126;SHT31;59999;51.676;22.650;2023-04-25T08:47:14;13.47;76.37
72126;SHT31;59999;51.676;22.650;2023-04-25T08:49:45;13.59;76.16
72126;SHT31;59999;51.676;22.650;2023-04-25T08:52:12;13.70;75.38
72126;SHT31;59999;51.676;22.650;2023-04-25T08:54:43;13.79;74.78
72126;SHT31;59999;51.676;22.650;2023-04-25T08:57:10;13.83;74.92
72126;SHT31;59999;51.676;22.650;2023-04-25T08:59:37;13.93;74.57
72126;SHT31;59999;51.676;22.650;2023-04-25T09:02:05;13.99;74.65
72126;SHT31;59999;51.676;22.650;2023-04-25T09:04:31;14.07;74.04
72126;SHT31;59999;51.676;22.650;2023-04-25T09:06:57;14.14;74.17
72126;SHT31;59999;51.676;22.650;2023-04-25T09:09:24;14.26;74.25
72126;SHT31;59999;51.676;22.650;2023-04-25T09:11:50;14.24;73.37
72126;SHT31;59999;51.676;22.650;2023-04-25T09:14:23;14.24;73.76
72126;SHT31;59999;51.676;22.650;2023-04-25T09:19:24;14.23;73.43
72126;SHT31;59999;51.676;22.650;2023-04-25T09:21:51;14.24;73.92
72126;SHT31;59999;51.676;22.650;2023-04-25T09:26:58;14.45;73.82
72126;SHT31;59999;51.676;22.650;2023-04-25T09:29:31;14.63;73.49
72126;SHT31;59999;51.676;22.650;2023-04-25T09:32:16;14.71;72.65
72126;SHT31;59999;51.676;22.650;2023-04-25T09:34:44;14.85;72.47
72126;SHT31;59999;51.676;22.650;2023-04-25T09:37:10;14.85;71.64
72126;SHT31;59999;51.676;22.650;2023-04-25T09:39:38;14.91;71.80
72126;SHT31;59999;51.676;22.650;2023-04-25T09:42:05;14.89;71.78
72126;SHT31;59999;51.676;22.650;2023-04-25T09:44:31;14.93;72.03
72126;SHT31;59999;51.676;22.650;2023-04-25T09:46:57;14.99;71.94
72126;SHT31;59999;51.676;22.650;2023-04-25T09:49:25;15.02;70.56
72126;SHT31;59999;51.676;22.650;2023-04-25T09:51:56;15.07;69.38
72126;SHT31;59999;51.676;22.650;2023-04-25T09:54:24;15.16;69.93
72126;SHT31;59999;51.676;22.650;2023-04-25T09:56:51;15.24;69.50
72126;SHT31;59999;51.676;22.650;2023-04-25T09:59:22;15.30;68.31
72126;SHT31;59999;51.676;22.650;2023-04-25T10:01:51;15.43;68.91
72126;SHT31;59999;51.676;22.650;2023-04-25T10:04:20;15.61;67.17
72126;SHT31;59999;51.676;22.650;2023-04-25T10:06:49;15.80;66.47
72126;SHT31;59999;51.676;22.650;2023-04-25T10:09:16;15.91;65.63
72126;SHT31;59999;51.676;22.650;2023-04-25T10:11:46;15.99;64.11
72126;SHT31;59999;51.676;22.650;2023-04-25T10:14:13;16.06;63.57
72126;SHT31;59999;51.676;22.650;2023-04-25T10:16:41;15.99;63.60
72126;SHT31;59999;51.676;22.650;2023-04-25T10:19:08;16.05;62.78
72126;SHT31;59999;51.676;22.650;2023-04-25T10:21:34;16.04;62.59
72126;SHT31;59999;51.676;22.650;2023-04-25T10:24:02;16.08;63.15
72126;SHT31;59999;51.676;22.650;2023-04-25T10:26:28;16.19;63.12
72126;SHT31;59999;51.676;22.650;2023-04-25T10:29:00;16.33;63.30
72126;SHT31;59999;51.676;22.650;2023-04-25T10:31:29;16.46;62.68
72126;SHT31;59999;51.676;22.650;2023-04-25T10:33:56;16.57;61.99
72126;SHT31;59999;51.676;22.650;2023-04-25T10:36:23;16.61;59.35
72126;SHT31;59999;51.676;22.650;2023-04-25T10:38:50;16.61;60.35
72126;SHT31;59999;51.676;22.650;2023-04-25T10:41:20;16.57;60.79
72126;SHT31;59999;51.676;22.650;2023-04-25T10:43:48;16.42;61.27
72126;SHT31;59999;51.676;22.650;2023-04-25T10:46:17;16.32;62.06
72126;SHT31;59999;51.676;22.650;2023-04-25T10:48:55;16.20;61.68
72126;SHT31;59999;51.676;22.650;2023-04-25T10:51:23;16.12;62.40
72126;SHT31;59999;51.676;22.650;2023-04-25T10:56:42;15.85;63.27
72126;SHT31;59999;51.676;22.650;2023-04-25T10:59:13;15.75;63.92
72126;SHT31;59999;51.676;22.650;2023-04-25T11:01:43;15.67;64.54
72126;SHT31;59999;51.676;22.650;2023-04-25T11:04:39;15.51;64.36
72126;SHT31;59999;51.676;22.650;2023-04-25T11:07:43;15.12;68.13
72126;SHT31;59999;51.676;22.650;2023-04-25T11:10:11;14.57;71.79
72126;SHT31;59999;51.676;22.650;2023-04-25T11:12:37;14.16;73.93
72126;SHT31;59999;51.676;22.650;2023-04-25T11:15:05;13.90;74.78
72126;SHT31;59999;51.676;22.650;2023-04-25T11:17:31;13.76;76.01
72126;SHT31;59999;51.676;22.650;2023-04-25T11:19:59;13.66;77.31
72126;SHT31;59999;51.676;22.650;2023-04-25T11:22:26;13.69;77.69
72126;SHT31;59999;51.676;22.650;2023-04-25T11:24:53;13.73;77.81
72126;SHT31;59999;51.676;22.650;2023-04-25T11:27:20;13.80;77.20
72126;SHT31;59999;51.676;22.650;2023-04-25T11:29:46;13.76;75.31
72126;SHT31;59999;51.676;22.650;2023-04-25T11:32:18;13.80;75.52
72126;SHT31;59999;51.676;22.650;2023-04-25T11:34:44;13.85;76.04
72126;SHT31;59999;51.676;22.650;2023-04-25T11:37:11;13.91;76.48
72126;SHT31;59999;51.676;22.650;2023-04-25T11:39:44;14.03;75.45
72126;SHT31;59999;51.676;22.650;2023-04-25T11:42:11;14.12;75.25
72126;SHT31;59999;51.676;22.650;2023-04-25T11:44:38;14.13;74.90
72126;SHT31;59999;51.676;22.650;2023-04-25T11:47:05;14.13;74.87
72126;SHT31;59999;51.676;22.650;2023-04-25T11:49:31;14.13;75.30
72126;SHT31;59999;51.676;22.650;2023-04-25T11:51:57;14.07;75.25
72126;SHT31;59999;51.676;22.650;2023-04-25T11:54:24;14.06;75.67
72126;SHT31;59999;51.676;22.650;2023-04-25T11:56:49;14.03;76.22
72126;SHT31;59999;51.676;22.650;2023-04-25T11:59:16;13.96;75.65
72126;SHT31;59999;51.676;22.650;2023-04-25T12:01:49;13.87;76.57
72126;SHT31;59999;51.676;22.650;2023-04-25T12:06:44;13.80;77.76
72126;SHT31;59999;51.676;22.650;2023-04-25T12:09:14;13.79;78.34
72126;SHT31;59999;51.676;22.650;2023-04-25T12:11:55;13.79;77.65
72126;SHT31;59999;51.676;22.650;2023-04-25T12:14:27;13.75;77.34
72126;SHT31;59999;51.676;22.650;2023-04-25T12:16:55;13.62;78.58
72126;SHT31;59999;51.676;22.650;2023-04-25T12:19:23;13.39;79.90
72126;SHT31;59999;51.676;22.650;2023-04-25T12:21:50;13.11;80.97
72126;SHT31;59999;51.676;22.650;2023-04-25T12:24:26;12.90;81.41
72126;SHT31;59999;51.676;22.650;2023-04-25T12:29:27;12.73;83.68
72126;SHT31;59999;51.676;22.650;2023-04-25T12:31:54;12.72;83.71
72126;SHT31;59999;51.676;22.650;2023-04-25T12:34:21;12.60;83.83
72126;SHT31;59999;51.676;22.650;2023-04-25T12:36:48;12.46;83.77
72126;SHT31;59999;51.676;22.650;2023-04-25T12:39:16;12.31;84.04
72126;SHT31;59999;51.676;22.650;2023-04-25T12:41:43;12.22;84.17
72126;SHT31;59999;51.676;22.650;2023-04-25T12:44:10;12.14;84.68
72126;SHT31;59999;51.676;22.650;2023-04-25T12:46:36;12.11;84.62
72126;SHT31;59999;51.676;22.650;2023-04-25T12:49:03;12.02;83.87
72126;SHT31;59999;51.676;22.650;2023-04-25T12:51:29;11.88;84.27
72126;SHT31;59999;51.676;22.650;2023-04-25T12:53:56;11.75;84.86
72126;SHT31;59999;51.676;22.650;2023-04-25T12:56:21;11.70;85.85
72126;SHT31;59999;51.676;22.650;2023-04-25T12:58:48;11.64;86.05
72126;SHT31;59999;51.676;22.650;2023-04-25T13:01:14;11.63;86.25
72126;SHT31;59999;51.676;22.650;2023-04-25T13:03:40;11.53;86.08
72126;SHT31;59999;51.676;22.650;2023-04-25T13:06:07;11.47;86.57
72126;SHT31;59999;51.676;22.650;2023-04-25T13:08:33;11.37;86.66
72126;SHT31;59999;51.676;22.650;2023-04-25T13:11:00;11.36;87.12
72126;SHT31;59999;51.676;22.650;2023-04-25T13:13:26;11.36;87.22
72126;SHT31;59999;51.676;22.650;2023-04-25T13:15:52;11.32;87.02
72126;SHT31;59999;51.676;22.650;2023-04-25T13:18:19;11.27;87.10
72126;SHT31;59999;51.676;22.650;2023-04-25T13:20:45;11.25;87.61
72126;SHT31;59999;51.676;22.650;2023-04-25T13:23:12;11.22;87.24
72126;SHT31;59999;51.676;22.650;2023-04-25T13:25:37;11.20;87.11
72126;SHT31;59999;51.676;22.650;2023-04-25T13:28:04;11.22;87.60
72126;SHT31;59999;51.676;22.650;2023-04-25T13:30:30;11.23;86.91
72126;SHT31;59999;51.676;22.650;2023-04-25T13:32:56;11.18;86.57
72126;SHT31;59999;51.676;22.650;2023-04-25T13:35:22;11.11;86.37
72126;SHT31;59999;51.676;22.650;2023-04-25T13:37:48;11.08;86.89
72126;SHT31;59999;51.676;22.650;2023-04-25T13:40:15;11.08;87.27
72126;SHT31;59999;51.676;22.650;2023-04-25T13:42:41;11.12;87.18
72126;SHT31;59999;51.676;22.650;2023-04-25T13:45:08;11.12;86.69
72126;SHT31;59999;51.676;22.650;2023-04-25T13:47:34;11.15;86.84
72126;SHT31;59999;51.676;22.650;2023-04-25T13:50:00;11.14;86.70
72126;SHT31;59999;51.676;22.650;2023-04-25T13:52:29;11.06;86.92
72126;SHT31;59999;51.676;22.650;2023-04-25T13:54:54;11.05;87.54
72126;SHT31;59999;51.676;22.650;2023-04-25T13:57:21;11.02;87.53
72126;SHT31;59999;51.676;22.650;2023-04-25T13:59:47;10.92;87.22
72126;SHT31;59999;51.676;22.650;2023-04-25T14:02:13;10.84;86.91
72126;SHT31;59999;51.676;22.650;2023-04-25T14:04:39;10.75;87.23
72126;SHT31;59999;51.676;22.650;2023-04-25T14:07:05;10.75;87.72
72126;SHT31;59999;51.676;22.650;2023-04-25T14:09:31;10.72;87.64
72126;SHT31;59999;51.676;22.650;2023-04-25T14:11:57;10.68;87.69
72126;SHT31;59999;51.676;22.650;2023-04-25T14:14:23;10.65;87.90
72126;SHT31;59999;51.676;22.650;2023-04-25T14:16:50;10.64;88.06
72126;SHT31;59999;51.676;22.650;2023-04-25T14:19:19;10.60;88.22
72126;SHT31;59999;51.676;22.650;2023-04-25T14:21:46;10.57;88.13
72126;SHT31;59999;51.676;22.650;2023-04-25T14:24:13;10.61;88.55
72126;SHT31;59999;51.676;22.650;2023-04-25T14:26:39;10.56;87.51
72126;SHT31;59999;51.676;22.650;2023-04-25T14:29:06;10.50;87.67
72126;SHT31;59999;51.676;22.650;2023-04-25T14:31:33;10.48;87.93
72126;SHT31;59999;51.676;22.650;2023-04-25T14:33:59;10.34;87.69
72126;SHT31;59999;51.676;22.650;2023-04-25T14:36:27;10.26;88.19
72126;SHT31;59999;51.676;22.650;2023-04-25T14:38:53;10.20;88.30
72126;SHT31;59999;51.676;22.650;2023-04-25T14:41:19;10.13;88.33
72126;SHT31;59999;51.676;22.650;2023-04-25T14:43:45;10.08;88.64
72126;SHT31;59999;51.676;22.650;2023-04-25T14:46:12;10.00;88.55
72126;SHT31;59999;51.676;22.650;2023-04-25T14:48:38;9.95;88.88
72126;SHT31;59999;51.676;22.650;2023-04-25T14:51:04;9.93;89.20
72126;SHT31;59999;51.676;22.650;2023-04-25T14:53:30;9.90;89.48
72126;SHT31;59999;51.676;22.650;2023-04-25T14:55:57;9.88;89.42
72126;SHT31;59999;51.676;22.650;2023-04-25T14:58:23;9.90;89.53
72126;SHT31;59999;51.676;22.650;2023-04-25T15:00:50;9.85;89.13
72126;SHT31;59999;51.676;22.650;2023-04-25T15:03:16;9.85;88.88
72126;SHT31;59999;51.676;22.650;2023-04-25T15:05:43;9.79;88.74
72126;SHT31;59999;51.676;22.650;2023-04-25T15:08:09;9.78;88.69
72126;SHT31;59999;51.676;22.650;2023-04-25T15:10:36;9.77;88.73
72126;SHT31;59999;51.676;22.650;2023-04-25T15:13:03;9.81;88.75
72126;SHT31;59999;51.676;22.650;2023-04-25T15:15:29;9.81;88.91
72126;SHT31;59999;51.676;22.650;2023-04-25T15:17:55;9.78;88.76
72126;SHT31;59999;51.676;22.650;2023-04-25T15:20:22;9.81;88.66
72126;SHT31;59999;51.676;22.650;2023-04-25T15:22:48;9.85;88.51
72126;SHT31;59999;51.676;22.650;2023-04-25T15:25:15;9.85;88.48
72126;SHT31;59999;51.676;22.650;2023-04-25T15:27:44;9.82;87.97
72126;SHT31;59999;51.676;22.650;2023-04-25T15:30:12;9.83;88.16
72126;SHT31;59999;51.676;22.650;2023-04-25T15:32:39;9.82;88.04